createdAt,value
2022-12-23T00:01:20.807Z,7.90
2022-12-23T00:03:48.613Z,7.87
2022-12-23T00:06:18.140Z,7.79
2022-12-23T00:08:46.647Z,7.89
2022-12-23T00:11:16.797Z,7.93
2022-12-23T00:14:03.908Z,7.97
2022-12-23T00:16:32.256Z,7.82
2022-12-23T00:19:00.133Z,7.76
2022-12-23T00:21:27.957Z,7.82
2022-12-23T00:23:55.806Z,7.72
2022-12-23T00:26:25.945Z,7.83
2022-12-23T00:28:57.244Z,7.84
2022-12-23T00:31:25.514Z,7.83
2022-12-23T00:33:54.476Z,7.85
2022-12-23T00:36:24.797Z,7.94
2022-12-23T00:39:10.518Z,7.86
2022-12-23T00:41:56.645Z,7.89
2022-12-23T00:44:26.226Z,7.90
2022-12-23T00:46:54.169Z,7.84
2022-12-23T00:49:40.253Z,8.05
2022-12-23T00:52:11.274Z,8.09
2022-12-23T00:54:39.049Z,7.97
2022-12-23T00:57:07.237Z,7.98
2022-12-23T00:59:36.682Z,8.11
2022-12-23T01:02:22.767Z,8.03
2022-12-23T01:05:08.091Z,8.04
2022-12-23T01:07:36.104Z,8.07
2022-12-23T01:10:04.857Z,8.01
2022-12-23T01:12:32.740Z,8.09
2022-12-23T01:15:01.951Z,8.12
2022-12-23T01:17:29.712Z,8.06
2022-12-23T01:19:57.585Z,8.15
2022-12-23T01:22:25.333Z,8.22
2022-12-23T01:24:53.123Z,8.29
2022-12-23T01:27:20.843Z,8.32
2022-12-23T01:29:48.596Z,8.30
2022-12-23T01:32:17.761Z,8.29
2022-12-23T01:34:45.657Z,8.41
2022-12-23T01:37:13.713Z,8.42
2022-12-23T01:39:41.542Z,8.32
2022-12-23T01:42:31.360Z,8.40
2022-12-23T01:45:01.042Z,8.53
2022-12-23T01:47:34.972Z,8.54
2022-12-23T01:50:08.546Z,8.60
2022-12-23T01:52:41.235Z,8.63
2022-12-23T01:55:10.233Z,8.58
2022-12-23T01:57:41.783Z,8.64
2022-12-23T02:00:29.473Z,8.65
2022-12-23T02:03:16.396Z,8.72
2022-12-23T02:05:46.828Z,8.78
2022-12-23T02:08:45.575Z,8.75
2022-12-23T02:11:29.154Z,8.73
2022-12-23T02:14:30.764Z,8.76
2022-12-23T02:17:09.736Z,8.73
2022-12-23T02:20:08.751Z,8.71
2022-12-23T02:23:02.909Z,8.77
2022-12-23T02:26:00.520Z,8.66
2022-12-23T02:29:09.099Z,8.76
2022-12-23T02:31:46.110Z,8.93
2022-12-23T02:34:18.176Z,8.90
2022-12-23T02:36:52.597Z,8.89
2022-12-23T02:39:25.402Z,9.00
2022-12-23T02:42:00.687Z,9.11
2022-12-23T02:44:34.306Z,9.05
2022-12-23T02:47:09.140Z,9.15
2022-12-23T02:49:42.334Z,9.13
2022-12-23T02:52:15.155Z,9.22
2022-12-23T02:54:47.215Z,9.33
2022-12-23T02:57:20.690Z,9.35
2022-12-23T02:59:53.130Z,9.23
2022-12-23T03:02:23.044Z,9.28
2022-12-23T03:04:51.056Z,9.30
2022-12-23T03:07:24.953Z,9.39
2022-12-23T03:10:03.906Z,9.31
2022-12-23T03:12:41.193Z,9.36
2022-12-23T03:15:22.448Z,9.39
2022-12-23T03:18:03.648Z,9.41
2022-12-23T03:20:40.707Z,9.46
2022-12-23T03:23:18.520Z,9.44
2022-12-23T03:25:54.990Z,9.27
2022-12-23T03:28:30.232Z,9.28
2022-12-23T03:31:01.823Z,9.36
2022-12-23T03:33:35.152Z,9.37
2022-12-23T03:36:11.637Z,9.35
2022-12-23T03:38:42.838Z,9.31
2022-12-23T03:41:17.452Z,9.44
2022-12-23T03:43:51.333Z,9.42
2022-12-23T03:46:24.585Z,9.49
2022-12-23T03:48:57.229Z,9.30
2022-12-23T03:51:29.384Z,9.34
2022-12-23T03:54:01.744Z,9.25
2022-12-23T03:56:32.972Z,9.26
2022-12-23T03:59:06.189Z,9.09
2022-12-23T04:01:43.905Z,9.41
2022-12-23T04:04:19.893Z,9.30
2022-12-23T04:06:56.390Z,9.31
2022-12-23T04:09:27.229Z,9.27
2022-12-23T04:11:55.715Z,9.31
2022-12-23T04:14:23.870Z,9.35
2022-12-23T04:16:56.569Z,9.51
2022-12-23T04:19:25.892Z,9.48
2022-12-23T04:21:55.192Z,9.51
2022-12-23T04:24:23.143Z,9.44
2022-12-23T04:26:51.018Z,9.29
2022-12-23T04:29:19.229Z,9.21
2022-12-23T04:31:47.238Z,8.96
2022-12-23T04:34:15.456Z,8.78
2022-12-23T04:36:44.863Z,9.00
2022-12-23T04:39:12.842Z,8.94
2022-12-23T04:41:40.886Z,8.87
2022-12-23T04:44:09.230Z,9.43
2022-12-23T04:46:37.470Z,9.21
2022-12-23T04:49:06.179Z,9.12
2022-12-23T04:51:34.221Z,9.14
2022-12-23T04:54:03.985Z,9.07
2022-12-23T04:56:32.351Z,9.03
2022-12-23T04:59:02.293Z,9.21
2022-12-23T05:01:30.912Z,9.06
2022-12-23T05:03:59.262Z,8.70
2022-12-23T05:06:27.467Z,8.86
2022-12-23T05:08:55.692Z,8.90
2022-12-23T05:11:25.567Z,8.83
2022-12-23T05:13:53.480Z,8.75
2022-12-23T05:16:21.455Z,8.89
2022-12-23T05:18:49.707Z,8.74
2022-12-23T05:21:17.643Z,8.57
2022-12-23T05:23:45.488Z,8.64
2022-12-23T05:26:13.581Z,8.78
2022-12-23T05:28:43.513Z,8.83
2022-12-23T05:31:11.795Z,8.70
2022-12-23T05:33:40.065Z,8.72
2022-12-23T05:36:09.031Z,8.73
2022-12-23T05:38:36.957Z,8.69
2022-12-23T05:41:05.714Z,8.80
2022-12-23T05:43:33.733Z,8.27
2022-12-23T05:46:03.329Z,8.23
2022-12-23T05:48:31.598Z,8.15
2022-12-23T05:50:59.593Z,8.15
2022-12-23T05:53:28.064Z,8.07
2022-12-23T05:55:56.045Z,8.11
2022-12-23T05:58:24.473Z,8.29
2022-12-23T06:00:52.815Z,8.47
2022-12-23T06:03:22.518Z,8.25
2022-12-23T06:05:51.980Z,8.30
2022-12-23T06:08:20.726Z,8.49
2022-12-23T06:10:49.050Z,7.96
2022-12-23T06:13:17.032Z,8.06
2022-12-23T06:15:45.141Z,8.17
2022-12-23T06:18:13.055Z,8.50
2022-12-23T06:20:42.335Z,8.02
2022-12-23T06:23:10.202Z,8.06
2022-12-23T06:25:38.481Z,8.28
2022-12-23T06:28:07.692Z,8.01
2022-12-23T06:30:35.996Z,8.14
2022-12-23T06:33:04.136Z,8.27
2022-12-23T06:35:32.025Z,8.07
2022-12-23T06:38:01.457Z,8.07
2022-12-23T06:40:29.997Z,8.27
2022-12-23T06:42:57.971Z,8.24
2022-12-23T06:45:26.232Z,8.39
2022-12-23T06:47:54.230Z,8.49
2022-12-23T06:50:22.366Z,8.41
2022-12-23T06:52:50.947Z,8.31
2022-12-23T06:55:21.366Z,8.33
2022-12-23T06:57:54.709Z,8.39
2022-12-23T07:00:22.987Z,8.37
2022-12-23T07:02:52.036Z,8.61
2022-12-23T07:05:20.197Z,8.41
2022-12-23T07:07:50.167Z,8.42
2022-12-23T07:10:18.214Z,8.22
2022-12-23T07:12:50.958Z,8.37
2022-12-23T07:15:19.557Z,8.40
2022-12-23T07:17:47.459Z,8.43
2022-12-23T07:20:15.594Z,8.49
2022-12-23T07:22:54.048Z,8.59
2022-12-23T07:25:22.162Z,8.39
2022-12-23T07:27:54.057Z,8.30
2022-12-23T07:30:21.942Z,8.26
2022-12-23T07:32:49.759Z,8.44
2022-12-23T07:35:18.294Z,8.39
2022-12-23T07:37:46.181Z,8.34
2022-12-23T07:40:14.956Z,8.59
2022-12-23T07:42:46.060Z,8.41
2022-12-23T07:45:16.136Z,8.38
2022-12-23T07:47:44.427Z,8.29
2022-12-23T07:50:12.943Z,8.30
2022-12-23T07:52:41.045Z,8.19
2022-12-23T07:55:09.597Z,8.19
2022-12-23T07:57:38.495Z,8.14
2022-12-23T08:00:08.183Z,8.25
2022-12-23T08:02:41.738Z,8.44
2022-12-23T08:05:10.828Z,8.27
2022-12-23T08:07:38.969Z,8.39
2022-12-23T08:10:08.094Z,8.41
2022-12-23T08:12:36.228Z,8.55
2022-12-23T08:15:04.915Z,8.36
2022-12-23T08:17:32.732Z,8.39
2022-12-23T08:20:01.934Z,8.42
2022-12-23T08:22:31.678Z,8.36
2022-12-23T08:25:00.330Z,8.58
2022-12-23T08:27:28.432Z,8.68
2022-12-23T08:29:56.440Z,8.48
2022-12-23T08:32:27.120Z,8.46
2022-12-23T08:34:57.450Z,8.55
2022-12-23T08:37:27.192Z,8.63
2022-12-23T08:39:55.080Z,8.66
2022-12-23T08:42:22.895Z,8.48
2022-12-23T08:44:50.739Z,8.61
2022-12-23T08:47:18.666Z,8.47
2022-12-23T08:49:46.626Z,8.57
2022-12-23T08:52:14.771Z,8.46
2022-12-23T08:54:44.018Z,8.64
2022-12-23T08:57:12.028Z,8.55
2022-12-23T08:59:40.404Z,8.45
2022-12-23T09:02:10.989Z,8.44
2022-12-23T09:04:38.882Z,8.64
2022-12-23T09:07:07.058Z,8.59
2022-12-23T09:09:34.808Z,8.59
2022-12-23T09:12:04.543Z,8.73
2022-12-23T09:14:32.616Z,8.66
2022-12-23T09:17:00.564Z,8.61
2022-12-23T09:19:28.365Z,8.34
2022-12-23T09:21:56.535Z,8.52
2022-12-23T09:24:24.347Z,8.49
2022-12-23T09:26:52.123Z,8.53
2022-12-23T09:29:21.530Z,8.39
2022-12-23T09:31:49.276Z,8.70
2022-12-23T09:34:17.250Z,8.69
2022-12-23T09:36:47.110Z,8.42
2022-12-23T09:39:18.348Z,8.45
2022-12-23T09:42:04.726Z,8.97
2022-12-23T09:45:11.099Z,8.84
2022-12-23T09:47:42.689Z,8.44
2022-12-23T09:50:21.396Z,8.46
2022-12-23T09:52:58.576Z,8.98
2022-12-23T09:55:35.579Z,9.05
2022-12-23T09:58:19.713Z,8.39
2022-12-23T10:01:00.809Z,9.03
2022-12-23T10:03:37.172Z,8.78
2022-12-23T10:06:12.225Z,9.11
2022-12-23T10:08:43.393Z,8.81
2022-12-23T10:11:17.808Z,8.92
2022-12-23T10:13:48.471Z,8.62
2022-12-23T10:16:20.673Z,8.14
2022-12-23T10:18:58.381Z,8.56
2022-12-23T10:21:33.248Z,8.74
2022-12-23T10:24:07.206Z,8.16
2022-12-23T10:26:42.783Z,8.22
2022-12-23T10:29:19.468Z,8.40
2022-12-23T10:31:59.839Z,8.99
2022-12-23T10:34:43.143Z,8.41
2022-12-23T10:37:20.139Z,8.45
2022-12-23T10:40:01.043Z,8.51
2022-12-23T10:42:37.370Z,8.44
2022-12-23T10:45:24.486Z,8.56
2022-12-23T10:48:06.057Z,8.44
2022-12-23T10:50:51.178Z,8.64
2022-12-23T10:53:36.958Z,8.84
2022-12-23T10:56:06.938Z,8.81
2022-12-23T10:58:38.133Z,8.78
2022-12-23T11:01:15.012Z,8.74
2022-12-23T11:03:57.100Z,9.71
2022-12-23T11:06:33.092Z,9.27
2022-12-23T11:09:04.194Z,8.93
2022-12-23T11:12:00.322Z,8.85
2022-12-23T11:14:33.991Z,8.78
2022-12-23T11:17:02.336Z,8.78
2022-12-23T11:19:30.362Z,8.76
2022-12-23T11:22:01.807Z,8.79
2022-12-23T11:24:35.317Z,8.77
2022-12-23T11:27:12.678Z,8.50
2022-12-23T11:29:46.508Z,8.44
2022-12-23T11:32:20.357Z,8.42
2022-12-23T11:34:50.385Z,8.60
2022-12-23T11:37:38.177Z,9.17
2022-12-23T11:40:15.029Z,9.28
2022-12-23T11:42:44.350Z,9.13
2022-12-23T11:45:23.645Z,9.28
2022-12-23T11:47:52.004Z,9.21
2022-12-23T11:50:36.661Z,9.26
2022-12-23T11:53:20.878Z,9.42
2022-12-23T11:55:59.871Z,9.42
2022-12-23T11:58:30.849Z,9.50
2022-12-23T12:01:01.293Z,9.62
2022-12-23T12:03:33.266Z,9.91
2022-12-23T12:06:04.156Z,9.45
2022-12-23T12:08:37.401Z,9.68
2022-12-23T12:11:12.722Z,9.42
2022-12-23T12:13:44.553Z,9.60
2022-12-23T12:16:25.383Z,9.81
2022-12-23T12:18:57.473Z,9.65
2022-12-23T12:21:31.759Z,9.78
2022-12-23T12:24:18.224Z,9.58
2022-12-23T12:26:51.459Z,9.39
2022-12-23T12:29:26.918Z,9.66
2022-12-23T12:31:58.849Z,9.55
2022-12-23T12:34:39.220Z,9.82
2022-12-23T12:37:18.841Z,9.97
2022-12-23T12:39:54.136Z,9.93
2022-12-23T12:42:28.816Z,9.82
2022-12-23T12:45:06.729Z,9.43
2022-12-23T12:47:58.174Z,9.47
2022-12-23T12:50:31.867Z,9.65
2022-12-23T12:53:05.025Z,9.82
2022-12-23T12:55:39.042Z,10.05
2022-12-23T12:58:16.570Z,9.82
2022-12-23T13:00:54.620Z,9.59
2022-12-23T13:03:47.409Z,9.47
2022-12-23T13:06:26.533Z,9.52
2022-12-23T13:09:06.800Z,9.80
2022-12-23T13:11:45.525Z,9.82
2022-12-23T13:14:30.183Z,9.83
2022-12-23T13:17:08.584Z,9.82
2022-12-23T13:19:47.233Z,9.86
2022-12-23T13:22:18.348Z,9.55
2022-12-23T13:24:57.886Z,9.38
2022-12-23T13:27:33.758Z,9.66
2022-12-23T13:30:12.209Z,9.67
2022-12-23T13:33:08.704Z,9.43
2022-12-23T13:35:52.752Z,9.24
2022-12-23T13:38:41.406Z,9.06
2022-12-23T13:41:23.228Z,9.13
2022-12-23T13:43:57.286Z,9.33
2022-12-23T13:46:36.875Z,9.29
2022-12-23T13:49:13.191Z,9.32
2022-12-23T13:51:50.978Z,9.18
2022-12-23T13:54:37.223Z,9.39
2022-12-23T13:57:18.087Z,9.45
2022-12-23T14:00:05.426Z,9.26
2022-12-23T14:02:44.123Z,9.12
2022-12-23T14:05:31.766Z,9.13
2022-12-23T14:08:01.436Z,8.79
2022-12-23T14:10:30.304Z,9.08
2022-12-23T14:13:05.154Z,9.14
2022-12-23T14:16:01.511Z,9.13
2022-12-23T14:19:00.654Z,9.16
2022-12-23T14:21:40.247Z,9.11
2022-12-23T14:24:32.817Z,8.99
2022-12-23T14:27:27.868Z,9.04
2022-12-23T14:30:06.831Z,9.18
2022-12-23T14:32:45.035Z,9.20
2022-12-23T14:35:23.880Z,8.88
2022-12-23T14:38:23.347Z,9.03
2022-12-23T14:41:11.263Z,8.76
2022-12-23T14:43:59.661Z,8.73
2022-12-23T14:46:59.029Z,8.57
2022-12-23T14:49:41.584Z,8.45
2022-12-23T14:52:58.654Z,8.50
2022-12-23T14:55:44.592Z,8.45
2022-12-23T14:58:35.711Z,8.55
2022-12-23T15:01:12.180Z,8.64
2022-12-23T15:03:46.830Z,8.82
2022-12-23T15:06:20.319Z,8.79
2022-12-23T15:08:51.974Z,8.78
2022-12-23T15:11:25.808Z,8.73
2022-12-23T15:13:56.188Z,8.76
2022-12-23T15:16:31.783Z,8.91
2022-12-23T15:19:03.542Z,8.72
2022-12-23T15:21:36.136Z,8.61
2022-12-23T15:24:04.248Z,8.67
2022-12-23T15:26:33.768Z,8.52
2022-12-23T15:29:02.087Z,8.52
2022-12-23T15:31:36.965Z,8.48
2022-12-23T15:34:16.503Z,8.45
2022-12-23T15:36:48.509Z,8.48
2022-12-23T15:39:22.106Z,8.48
2022-12-23T15:41:50.248Z,8.26
2022-12-23T15:44:22.241Z,8.30
2022-12-23T15:46:51.720Z,8.28
2022-12-23T15:49:21.250Z,8.33
2022-12-23T15:52:18.181Z,8.15
2022-12-23T15:54:53.316Z,8.20
2022-12-23T15:57:25.270Z,8.28
2022-12-23T15:59:53.581Z,8.14
2022-12-23T16:05:27.885Z,8.25
2022-12-23T16:08:12.590Z,8.23
2022-12-23T16:10:41.269Z,8.10
2022-12-23T16:13:18.874Z,8.10
2022-12-23T16:15:48.311Z,8.06
2022-12-23T16:18:26.044Z,8.10
2022-12-23T16:20:56.394Z,8.26
2022-12-23T16:23:30.323Z,8.37
2022-12-23T16:26:00.615Z,8.30
2022-12-23T16:28:31.972Z,8.34
2022-12-23T16:31:00.015Z,8.04
2022-12-23T16:33:37.431Z,7.84
2022-12-23T16:36:19.542Z,7.94
2022-12-23T16:38:51.263Z,8.00
2022-12-23T16:41:20.482Z,8.14
2022-12-23T16:43:52.537Z,8.15
2022-12-23T16:46:23.215Z,8.18
2022-12-23T16:48:55.503Z,8.16
2022-12-23T16:51:24.667Z,8.03
2022-12-23T16:53:56.661Z,7.93
2022-12-23T16:56:29.172Z,7.95
2022-12-23T16:58:59.093Z,7.88
2022-12-23T17:01:30.288Z,7.90
2022-12-23T17:03:58.707Z,7.88
2022-12-23T17:06:27.431Z,8.01
2022-12-23T17:09:00.048Z,8.07
2022-12-23T17:11:36.684Z,8.12
2022-12-23T17:14:15.603Z,8.17
2022-12-23T17:16:45.044Z,8.18
2022-12-23T17:19:13.812Z,8.14
2022-12-23T17:21:44.188Z,8.16
2022-12-23T17:24:16.341Z,8.09
2022-12-23T17:26:44.916Z,8.15
2022-12-23T17:29:13.840Z,8.07
2022-12-23T17:31:42.585Z,8.04
2022-12-23T17:34:15.406Z,8.08
2022-12-23T17:36:49.638Z,8.09
2022-12-23T17:39:20.198Z,8.19
2022-12-23T17:41:48.715Z,8.18
2022-12-23T17:44:18.254Z,8.03
2022-12-23T17:46:47.395Z,8.10
2022-12-23T17:49:15.403Z,8.13
2022-12-23T17:51:43.842Z,8.24
2022-12-23T17:54:22.548Z,8.15
2022-12-23T17:56:50.895Z,8.18
2022-12-23T17:59:18.803Z,8.05
2022-12-23T18:01:46.746Z,8.06
2022-12-23T18:04:14.706Z,7.80
2022-12-23T18:06:42.841Z,7.72
2022-12-23T18:09:10.835Z,7.80
2022-12-23T18:11:43.015Z,7.81
2022-12-23T18:14:17.232Z,7.94
2022-12-23T18:16:45.215Z,7.77
2022-12-23T18:19:20.386Z,7.73
2022-12-23T18:21:48.706Z,7.77
2022-12-23T18:24:16.878Z,7.72
2022-12-23T18:26:47.806Z,7.72
2022-12-23T18:29:16.188Z,7.67
2022-12-23T18:31:52.415Z,7.62
2022-12-23T18:34:22.013Z,7.46
2022-12-23T18:36:52.207Z,7.57
2022-12-23T18:39:23.994Z,7.68
2022-12-23T18:42:01.684Z,7.70
2022-12-23T18:44:30.439Z,7.76
2022-12-23T18:46:58.438Z,7.82
2022-12-23T18:49:26.479Z,7.73
2022-12-23T18:51:54.451Z,7.74
2022-12-23T18:54:22.513Z,7.78
2022-12-23T18:56:50.257Z,7.86
2022-12-23T18:59:29.355Z,7.78
2022-12-23T19:01:58.178Z,7.86
2022-12-23T19:04:26.413Z,8.01
2022-12-23T19:06:55.745Z,7.89
2022-12-23T19:09:25.785Z,7.90
2022-12-23T19:11:54.751Z,7.83
2022-12-23T19:14:24.094Z,7.86
2022-12-23T19:16:52.803Z,7.88
2022-12-23T19:19:21.442Z,7.90
2022-12-23T19:21:49.400Z,7.89
2022-12-23T19:24:17.401Z,7.79
2022-12-23T19:26:45.398Z,7.98
2022-12-23T19:29:16.130Z,7.93
2022-12-23T19:31:46.692Z,7.89
2022-12-23T19:34:16.208Z,7.74
2022-12-23T19:36:44.468Z,7.73
2022-12-23T19:39:16.305Z,7.68
2022-12-23T19:41:45.068Z,7.70
2022-12-23T19:44:12.991Z,7.72
2022-12-23T19:46:41.455Z,7.75
2022-12-23T19:49:17.424Z,7.70
2022-12-23T19:51:48.362Z,7.64
2022-12-23T19:54:16.979Z,7.73
2022-12-23T19:56:45.152Z,7.81
2022-12-23T19:59:19.362Z,7.85
2022-12-23T20:01:54.739Z,7.80
2022-12-23T20:04:25.651Z,7.89
2022-12-23T20:06:58.113Z,7.97
2022-12-23T20:09:27.826Z,7.99
2022-12-23T20:15:16.950Z,7.89
2022-12-23T20:17:45.220Z,7.81
2022-12-23T20:20:19.306Z,7.77
2022-12-23T20:22:50.139Z,7.79
2022-12-23T20:25:18.114Z,7.78
2022-12-23T20:27:46.241Z,7.91
2022-12-23T20:30:14.366Z,7.99
2022-12-23T20:32:42.409Z,8.20
2022-12-23T20:35:10.881Z,8.06
2022-12-23T20:37:40.167Z,7.82
2022-12-23T20:40:12.860Z,7.84
2022-12-23T20:42:44.047Z,7.95
2022-12-23T20:45:12.300Z,7.87
2022-12-23T20:47:54.759Z,7.72
2022-12-23T20:50:23.135Z,7.76
2022-12-23T20:52:55.399Z,7.85
2022-12-23T20:55:28.073Z,7.94
2022-12-23T20:58:19.457Z,7.92
2022-12-23T21:01:02.806Z,8.04
2022-12-23T21:03:37.866Z,8.01
2022-12-23T21:06:10.175Z,7.95
2022-12-23T21:08:43.569Z,7.84
2022-12-23T21:11:12.692Z,7.99
2022-12-23T21:13:41.559Z,7.98
2022-12-23T21:16:14.043Z,7.99
2022-12-23T21:18:46.032Z,7.90
2022-12-23T21:21:14.210Z,7.90
2022-12-23T21:23:44.352Z,7.88
2022-12-23T21:26:14.915Z,7.94
2022-12-23T21:28:44.444Z,7.99
2022-12-23T21:31:12.464Z,7.93
2022-12-23T21:33:42.677Z,7.87
2022-12-23T21:36:16.416Z,7.93
2022-12-23T21:38:49.982Z,7.90
2022-12-23T21:41:26.082Z,7.77
2022-12-23T21:43:55.465Z,7.81
2022-12-23T21:46:28.502Z,7.83
2022-12-23T21:49:03.393Z,7.81
2022-12-23T21:51:40.663Z,7.79
2022-12-23T21:54:22.327Z,7.82
2022-12-23T21:56:54.463Z,7.96
2022-12-23T22:02:30.304Z,7.81
2022-12-23T22:04:58.697Z,7.77
2022-12-23T22:07:26.760Z,7.75
2022-12-23T22:09:56.579Z,7.76
2022-12-23T22:12:25.173Z,7.82
2022-12-23T22:14:53.941Z,7.87
2022-12-23T22:17:22.149Z,7.75
2022-12-23T22:19:50.513Z,7.63
2022-12-23T22:22:18.365Z,7.79
2022-12-23T22:24:46.965Z,7.88
2022-12-23T22:27:16.747Z,8.08
2022-12-23T22:29:44.840Z,8.10
2022-12-23T22:32:14.838Z,7.90
2022-12-23T22:34:43.222Z,7.88
2022-12-23T22:37:11.646Z,7.97
2022-12-23T22:39:43.016Z,7.72
2022-12-23T22:42:11.143Z,7.63
2022-12-23T22:44:40.315Z,7.81
2022-12-23T22:47:08.450Z,7.80
2022-12-23T22:49:36.682Z,7.81
2022-12-23T22:52:05.858Z,7.87
2022-12-23T22:54:33.738Z,7.83
2022-12-23T22:57:01.861Z,7.93
2022-12-23T22:59:30.997Z,8.06
2022-12-23T23:02:00.228Z,7.92
2022-12-23T23:04:28.265Z,7.69
2022-12-23T23:06:56.043Z,7.77
2022-12-23T23:09:24.285Z,7.92
2022-12-23T23:11:52.868Z,7.90
2022-12-23T23:14:21.106Z,8.14
2022-12-23T23:16:49.098Z,7.99
2022-12-23T23:19:20.393Z,7.82
2022-12-23T23:21:48.858Z,8.05
2022-12-23T23:24:16.742Z,7.83
2022-12-23T23:26:44.639Z,7.79
2022-12-23T23:29:12.356Z,7.83
2022-12-23T23:31:44.590Z,7.96
2022-12-23T23:34:14.468Z,8.24
2022-12-23T23:36:48.756Z,8.40
2022-12-23T23:39:16.845Z,8.24
2022-12-23T23:41:44.828Z,7.93
2022-12-23T23:44:13.573Z,7.82
2022-12-23T23:46:42.705Z,7.80
2022-12-23T23:49:11.121Z,7.75
2022-12-23T23:51:39.991Z,7.82
2022-12-23T23:54:13.144Z,7.79
2022-12-23T23:56:43.383Z,7.80
2022-12-23T23:59:11.411Z,7.76
